TimeEDT,TemperatureF,Dew PointF,Humidity,Sea Level PressureIn,VisibilityMPH,Wind Direction,Wind SpeedMPH,Gust SpeedMPH,PrecipitationIn,Events,Conditions,WindDirDegrees,DateUTC
12:13 AM,54.0,53.2,97,29.93,0.5,Calm,Calm,-,N/A,Fog,Fog,0,2012-10-25 04:13:00
12:33 AM,52.7,52.2,98,29.92,0.2,Calm,Calm,-,N/A,Fog,Fog,0,2012-10-25 04:33:00
12:53 AM,51.8,51.3,98,29.92,0.5,Calm,Calm,-,N/A,Fog,Fog,0,2012-10-25 04:53:00
1:13 AM,50.9,50.4,98,29.92,0.2,Calm,Calm,-,N/A,Fog,Fog,0,2012-10-25 05:13:00
1:33 AM,50.9,50.4,98,29.92,0.5,Calm,Calm,-,N/A,Fog,Fog,0,2012-10-25 05:33:00
1:53 AM,50.9,50.4,98,29.92,1.0,Calm,Calm,-,N/A,,Overcast,0,2012-10-25 05:53:00
2:11 AM,57.7,57.2,98,29.91,7.0,South,8.1,-,N/A,,Mostly Cloudy,180,2012-10-25 06:11:00
2:33 AM,59.5,57.7,94,29.91,10.0,South,8.1,-,N/A,,Scattered Clouds,180,2012-10-25 06:33:00
2:53 AM,59.9,57.6,92,29.91,10.0,South,8.1,-,N/A,,Clear,170,2012-10-25 06:53:00
3:13 AM,59.9,57.6,92,29.91,10.0,South,6.9,-,N/A,,Scattered Clouds,180,2012-10-25 07:13:00
3:33 AM,60.1,57.6,91,29.90,10.0,South,5.8,-,N/A,,Mostly Cloudy,180,2012-10-25 07:33:00
3:53 AM,59.0,57.2,94,29.90,7.0,SSW,4.6,-,N/A,,Scattered Clouds,200,2012-10-25 07:53:00
4:13 AM,59.0,57.4,94,29.90,7.0,SSW,5.8,-,N/A,,Mostly Cloudy,200,2012-10-25 08:13:00
4:33 AM,59.0,57.2,94,29.90,7.0,South,4.6,-,N/A,,Mostly Cloudy,180,2012-10-25 08:33:00
4:53 AM,58.8,57.0,94,29.89,7.0,South,5.8,-,N/A,,Scattered Clouds,170,2012-10-25 08:53:00
5:13 AM,59.9,57.2,91,29.88,10.0,South,8.1,-,N/A,,Scattered Clouds,180,2012-10-25 09:13:00
5:33 AM,59.9,56.8,90,29.87,10.0,South,8.1,-,N/A,,Clear,180,2012-10-25 09:33:00
5:53 AM,59.4,56.3,90,29.88,10.0,South,6.9,-,N/A,,Clear,190,2012-10-25 09:53:00
6:12 AM,59.2,56.3,90,29.87,10.0,South,8.1,-,N/A,,Clear,180,2012-10-25 10:12:00
6:33 AM,58.5,55.8,91,29.87,10.0,South,4.6,-,N/A,,Clear,190,2012-10-25 10:33:00
6:53 AM,58.8,55.9,90,29.87,10.0,South,4.6,-,N/A,,Clear,180,2012-10-25 10:53:00
7:12 AM,59.4,55.8,88,29.87,10.0,South,5.8,-,N/A,,Clear,180,2012-10-25 11:12:00
7:33 AM,59.5,55.4,86,29.88,10.0,South,9.2,-,N/A,,Clear,170,2012-10-25 11:33:00
7:53 AM,58.6,55.2,88,29.88,10.0,SSE,6.9,-,N/A,,Clear,160,2012-10-25 11:53:00
8:12 AM,58.8,55.0,87,29.88,10.0,South,6.9,-,N/A,,Clear,170,2012-10-25 12:12:00
8:33 AM,58.5,54.9,88,29.88,10.0,SSE,10.4,-,N/A,,Clear,160,2012-10-25 12:33:00
8:53 AM,59.4,55.0,86,29.88,10.0,South,10.4,16.1,N/A,,Clear,170,2012-10-25 12:53:00
9:33 AM,61.5,55.4,80,29.88,10.0,South,11.5,17.3,N/A,,Clear,180,2012-10-25 13:33:00
9:53 AM,62.6,55.4,77,29.88,10.0,South,13.8,20.7,N/A,,Clear,180,2012-10-25 13:53:00
10:13 AM,64.6,55.4,72,29.87,10.0,South,13.8,20.7,N/A,,Clear,170,2012-10-25 14:13:00
10:33 AM,64.9,55.6,72,29.87,10.0,South,17.3,26.5,N/A,,Clear,190,2012-10-25 14:33:00
10:53 AM,65.8,55.6,69,29.87,10.0,SSW,13.8,26.5,N/A,,Clear,200,2012-10-25 14:53:00
11:13 AM,67.1,56.3,68,29.86,10.0,South,16.1,20.7,N/A,,Clear,190,2012-10-25 15:13:00
11:33 AM,68.2,56.5,66,29.85,10.0,South,15.0,25.3,N/A,,Clear,190,2012-10-25 15:33:00
11:53 AM,68.2,56.5,66,29.85,10.0,South,20.7,25.3,N/A,,Clear,190,2012-10-25 15:53:00
12:13 PM,69.1,56.7,65,29.84,10.0,South,20.7,27.6,N/A,,Clear,190,2012-10-25 16:13:00
12:33 PM,69.6,57.0,64,29.83,10.0,South,21.9,27.6,N/A,,Clear,190,2012-10-25 16:33:00
12:53 PM,71.1,57.4,62,29.82,10.0,South,20.7,32.2,N/A,,Clear,180,2012-10-25 16:53:00
1:13 PM,72.9,57.7,59,29.81,10.0,SSW,18.4,26.5,N/A,,Clear,200,2012-10-25 17:13:00
1:33 PM,73.4,57.7,58,29.81,10.0,South,20.7,34.5,N/A,,Clear,190,2012-10-25 17:33:00
1:52 PM,73.8,57.9,58,29.79,10.0,SSW,19.6,27.6,N/A,,Clear,200,2012-10-25 17:52:00
2:13 PM,74.5,57.9,56,29.78,10.0,South,19.6,26.5,N/A,,Clear,180,2012-10-25 18:13:00
2:33 PM,74.3,57.4,55,29.78,10.0,South,21.9,32.2,N/A,,Clear,180,2012-10-25 18:33:00
2:52 PM,74.7,57.2,54,29.77,10.0,South,21.9,34.5,N/A,,Clear,180,2012-10-25 18:52:00
3:13 PM,75.2,56.8,53,29.76,10.0,South,19.6,32.2,N/A,,Clear,180,2012-10-25 19:13:00
3:33 PM,75.2,56.7,52,29.75,10.0,South,19.6,29.9,N/A,,Clear,180,2012-10-25 19:33:00
3:52 PM,75.2,56.3,52,29.75,10.0,South,23.0,32.2,N/A,,Clear,180,2012-10-25 19:52:00
4:13 PM,75.2,56.1,51,29.74,10.0,South,21.9,31.1,N/A,,Clear,170,2012-10-25 20:13:00
4:33 PM,74.8,55.4,51,29.73,10.0,South,20.7,29.9,N/A,,Clear,180,2012-10-25 20:33:00
4:52 PM,74.7,55.4,51,29.73,10.0,South,18.4,27.6,N/A,,Clear,190,2012-10-25 20:52:00
5:13 PM,74.1,55.0,51,29.73,10.0,SSW,15.0,23.0,N/A,,Clear,200,2012-10-25 21:13:00
5:33 PM,73.4,54.7,52,29.72,10.0,South,18.4,28.8,N/A,,Clear,190,2012-10-25 21:33:00
5:52 PM,72.7,54.0,52,29.72,10.0,South,20.7,28.8,N/A,,Clear,190,2012-10-25 21:52:00
6:13 PM,72.0,54.0,53,29.72,10.0,South,17.3,26.5,N/A,,Clear,190,2012-10-25 22:13:00
6:33 PM,71.6,53.8,53,29.72,10.0,South,17.3,23.0,N/A,,Clear,190,2012-10-25 22:33:00
6:52 PM,71.1,54.0,55,29.73,10.0,South,13.8,24.2,N/A,,Clear,180,2012-10-25 22:52:00
7:13 PM,69.8,54.3,58,29.73,10.0,South,13.8,20.7,N/A,,Clear,190,2012-10-25 23:13:00
7:33 PM,69.8,54.3,58,29.74,10.0,South,12.7,20.7,N/A,,Clear,190,2012-10-25 23:33:00
7:52 PM,69.6,54.0,57,29.74,10.0,South,16.1,20.7,N/A,,Clear,190,2012-10-25 23:52:00
8:13 PM,69.8,53.6,56,29.74,10.0,SSW,16.1,25.3,N/A,,Clear,200,2012-10-26 00:13:00
8:33 PM,69.1,53.8,58,29.75,10.0,SSW,18.4,25.3,N/A,,Clear,200,2012-10-26 00:33:00
8:53 PM,68.4,53.8,60,29.76,10.0,SSW,17.3,25.3,N/A,,Clear,200,2012-10-26 00:53:00
9:13 PM,68.2,53.6,60,29.74,10.0,South,17.3,25.3,N/A,,Scattered Clouds,190,2012-10-26 01:13:00
9:33 PM,68.0,53.6,60,29.73,10.0,SSW,16.1,23.0,N/A,,Clear,200,2012-10-26 01:33:00
9:53 PM,68.0,53.2,59,29.73,10.0,South,15.0,23.0,N/A,,Clear,190,2012-10-26 01:53:00
10:13 PM,68.0,53.2,59,29.74,10.0,SSW,16.1,20.7,N/A,,Clear,200,2012-10-26 02:13:00
10:32 PM,68.0,53.1,59,29.74,10.0,South,16.1,23.0,N/A,,Clear,190,2012-10-26 02:32:00
10:53 PM,67.3,53.1,60,29.73,10.0,SSW,16.1,26.5,N/A,,Clear,200,2012-10-26 02:53:00
11:13 PM,66.6,53.2,62,29.72,10.0,SSW,19.6,25.3,N/A,,Clear,200,2012-10-26 03:13:00
11:32 PM,67.1,53.6,62,29.71,10.0,South,17.3,28.8,N/A,,Clear,190,2012-10-26 03:32:00
11:53 PM,67.1,53.6,62,29.70,10.0,SSW,15.0,23.0,N/A,,Clear,200,2012-10-26 03:53:00